Time;durP1;ratioP1;P1;durP2;ratioP2;P2;SDS_P1;SDS_P2;PMS_P1;PMS_P2;Temp;Humidity;BMP_temperature;BMP_pressure;BME280_temperature;BME280_humidity;BME280_pressure;Samples;Min_cycle;Max_cycle;Signal;HPM_P1;HPM_P2
2021/03/06 00:00:23;;;;;;;12.38;3.22;;;;;;;-2.82;85.67;103298.84;5046707;28;20502;-72
2021/03/06 00:02:51;;;;;;;10.02;2.67;;;;;;;-2.82;85.80;103301.41;5048133;28;20041;-72
2021/03/06 00:05:18;;;;;;;11.95;2.55;;;;;;;-2.78;86.41;103302.28;5055495;28;20037;-71
2021/03/06 00:07:44;;;;;;;9.55;2.85;;;;;;;-2.78;86.74;103289.44;5054560;28;20051;-72
2021/03/06 00:10:11;;;;;;;7.97;2.80;;;;;;;-2.81;86.45;103302.25;5059316;28;20060;-72
2021/03/06 00:12:39;;;;;;;9.18;2.70;;;;;;;-2.83;86.50;103306.53;5046348;28;20033;-71
2021/03/06 00:15:06;;;;;;;10.50;2.88;;;;;;;-2.89;86.29;103309.09;5048448;28;20040;-72
2021/03/06 00:17:31;;;;;;;11.13;2.70;;;;;;;-2.98;86.98;103315.91;5082230;28;20035;-71
2021/03/06 00:19:57;;;;;;;10.93;2.88;;;;;;;-3.05;86.81;103306.50;5064663;28;20032;-72
2021/03/06 00:22:22;;;;;;;6.50;2.80;;;;;;;-3.07;86.53;103307.31;5057214;28;20043;-72
2021/03/06 00:24:48;;;;;;;12.50;3.03;;;;;;;-3.10;86.61;103297.91;5063433;28;20032;-71
2021/03/06 00:27:13;;;;;;;13.85;3.55;;;;;;;-3.10;87.04;103312.47;5069849;28;20406;-72
2021/03/06 00:29:38;;;;;;;11.13;2.88;;;;;;;-3.11;86.96;103311.59;5050004;28;20040;-73
2021/03/06 00:32:04;;;;;;;9.00;2.63;;;;;;;-3.14;87.22;103309.03;5054354;28;20390;-70
2021/03/06 00:34:30;;;;;;;12.52;2.75;;;;;;;-3.20;86.80;103302.16;5050499;28;20052;-71
2021/03/06 00:36:55;;;;;;;12.35;2.78;;;;;;;-3.16;86.61;103303.88;5066477;28;20040;-71
2021/03/06 00:39:21;;;;;;;15.10;3.33;;;;;;;-3.19;87.03;103298.72;5063786;28;20067;-71
2021/03/06 00:41:46;;;;;;;13.30;3.28;;;;;;;-3.22;87.28;103301.31;5057293;28;20091;-72
2021/03/06 00:44:14;;;;;;;10.00;3.42;;;;;;;-3.25;86.85;103296.16;5066583;28;20060;-73
2021/03/06 00:46:39;;;;;;;16.63;3.63;;;;;;;-3.30;87.30;103294.44;5062054;28;20443;-71
2021/03/06 00:49:05;;;;;;;10.05;3.45;;;;;;;-3.29;88.59;103297.00;5060433;28;20037;-71
2021/03/06 00:51:31;;;;;;;14.18;3.80;;;;;;;-3.31;88.90;103298.72;5058274;28;20028;-72
2021/03/06 00:53:56;;;;;;;13.48;4.00;;;;;;;-3.35;88.09;103291.84;5057688;28;20041;-71
2021/03/06 00:56:24;;;;;;;14.10;3.97;;;;;;;-3.39;87.90;103298.69;5064344;28;20064;-71
2021/03/06 00:58:50;;;;;;;11.68;3.60;;;;;;;-3.43;88.41;103296.09;5049445;28;20079;-71
2021/03/06 01:01:16;;;;;;;12.27;3.80;;;;;;;-3.45;88.26;103290.09;5035339;28;20040;-71
2021/03/06 01:03:42;;;;;;;11.30;3.50;;;;;;;-3.49;88.34;103286.66;5049482;28;20025;-70
2021/03/06 01:06:07;;;;;;;11.25;3.50;;;;;;;-3.52;87.89;103286.66;5063303;28;20048;-73
2021/03/06 01:08:34;;;;;;;10.88;3.33;;;;;;;-3.49;87.98;103293.50;5059271;28;20398;-72
2021/03/06 01:11:00;;;;;;;9.23;2.97;;;;;;;-3.49;88.01;103285.81;5058107;28;20037;-72
2021/03/06 01:13:26;;;;;;;9.80;2.67;;;;;;;-3.50;87.50;103287.53;5061019;28;20044;-71
2021/03/06 01:15:52;;;;;;;9.50;2.83;;;;;;;-3.53;87.78;103288.34;5066770;28;20052;-72
2021/03/06 01:18:18;;;;;;;9.68;2.53;;;;;;;-3.58;88.42;103296.88;5066192;28;20036;-72
2021/03/06 01:20:44;;;;;;;11.98;2.55;;;;;;;-3.59;88.67;103295.16;5045719;28;20025;-72
2021/03/06 01:23:09;;;;;;;14.20;2.42;;;;;;;-3.67;89.15;103286.56;5063241;28;20044;-72
2021/03/06 01:25:35;;;;;;;6.32;2.33;;;;;;;-3.69;89.25;103278.88;5060262;28;20071;-72
2021/03/06 01:28:01;;;;;;;12.43;2.60;;;;;;;-3.64;89.53;103284.88;5049804;28;20028;-72
2021/03/06 01:30:26;;;;;;;9.32;2.38;;;;;;;-3.66;89.97;103281.44;5049561;28;20394;-71
2021/03/06 01:32:52;;;;;;;10.57;2.30;;;;;;;-3.64;89.94;103277.19;5046501;28;20044;-72
2021/03/06 01:35:22;;;;;;;5.63;2.22;;;;;;;-3.65;89.90;103277.19;5066172;28;20033;-72
2021/03/06 01:37:49;;;;;;;9.50;2.13;;;;;;;-3.66;88.84;103275.47;5060181;28;20028;-71
2021/03/06 01:40:17;;;;;;;9.20;1.98;;;;;;;-3.63;89.05;103278.06;5064829;28;20071;-72
2021/03/06 01:42:49;;;;;;;7.72;2.30;;;;;;;-3.62;89.10;103282.31;5067058;28;20125;-72
2021/03/06 01:45:15;;;;;;;10.48;2.50;;;;;;;-3.68;89.07;103266.91;5048158;28;20448;-71
2021/03/06 01:47:41;;;;;;;11.98;2.55;;;;;;;-3.64;88.50;103277.19;5049715;28;20041;-71
2021/03/06 01:50:08;;;;;;;5.22;2.03;;;;;;;-3.63;88.44;103272.94;5067452;28;20093;-73
2021/03/06 01:52:34;;;;;;;12.02;2.25;;;;;;;-3.63;89.33;103270.34;5052000;28;20064;-70
2021/03/06 01:55:01;;;;;;;7.20;2.15;;;;;;;-3.67;88.42;103261.78;5066322;28;20079;-71
2021/03/06 01:57:27;;;;;;;8.68;2.50;;;;;;;-3.65;88.01;103267.78;5069846;28;20565;-71
2021/03/06 01:59:53;;;;;;;6.22;1.90;;;;;;;-3.67;88.16;103264.34;5071260;28;20062;-73
2021/03/06 02:02:19;;;;;;;10.73;2.55;;;;;;;-3.65;87.97;103262.66;5069513;28;20049;-71
2021/03/06 02:04:44;;;;;;;9.73;2.53;;;;;;;-3.60;88.26;103254.97;5065873;28;20029;-70
2021/03/06 02:07:10;;;;;;;9.45;2.17;;;;;;;-3.53;88.36;103252.41;5060232;28;20024;-72
2021/03/06 02:09:35;;;;;;;6.85;2.35;;;;;;;-3.47;89.67;103249.03;5064319;28;20032;-72
2021/03/06 02:12:30;;;;;;;10.98;2.58;;;;;;;-3.47;89.35;103254.16;5066330;28;20043;-72
2021/03/06 02:15:30;;;;;;;3.80;1.92;;;;;;;-3.59;89.59;103239.56;5063396;28;20040;-73
2021/03/06 02:18:07;;;;;;;10.70;2.20;;;;;;;-3.57;89.08;103244.72;5047405;28;20041;-73
2021/03/06 02:20:41;;;;;;;11.75;2.22;;;;;;;-3.54;89.61;103242.19;5049303;28;20591;-73
2021/03/06 02:23:28;;;;;;;15.93;2.25;;;;;;;-3.50;89.97;103243.91;5065221;28;20033;-72
2021/03/06 02:26:15;;;;;;;10.70;2.05;;;;;;;-3.45;89.54;103241.34;5066468;28;20040;-72
2021/03/06 02:28:57;;;;;;;11.23;2.72;;;;;;;-3.50;90.05;103237.88;5056029;28;20036;-74
2021/03/06 02:31:25;;;;;;;12.23;2.03;;;;;;;-3.58;89.43;103243.88;5065012;28;20190;-71
2021/03/06 02:33:56;;;;;;;8.50;2.00;;;;;;;-3.67;90.71;103238.69;5060305;28;20031;-72
2021/03/06 02:36:25;;;;;;;6.63;2.08;;;;;;;-3.69;90.11;103250.66;5066321;28;20103;-73
2021/03/06 02:38:54;;;;;;;5.85;2.05;;;;;;;-3.70;90.03;103238.69;5030588;28;20408;-72
2021/03/06 02:41:21;;;;;;;7.90;1.77;;;;;;;-3.73;89.26;103238.66;5052884;28;20040;-72
2021/03/06 02:43:50;;;;;;;11.98;2.20;;;;;;;-3.68;88.93;103233.56;5066542;28;20107;-72
2021/03/06 02:46:15;;;;;;;9.73;1.90;;;;;;;-3.64;89.06;103232.72;5057207;28;20086;-72
2021/03/06 02:48:41;;;;;;;8.40;1.90;;;;;;;-3.61;89.93;103233.59;5058302;28;20040;-73
2021/03/06 02:51:06;;;;;;;12.73;2.13;;;;;;;-3.68;89.75;103226.72;5060526;28;20402;-73
2021/03/06 02:53:32;;;;;;;10.20;1.85;;;;;;;-3.66;89.41;103224.16;5057281;28;20111;-73
2021/03/06 02:55:57;;;;;;;8.80;2.20;;;;;;;-3.60;89.85;103212.22;5060507;28;20095;-72
2021/03/06 02:58:55;;;;;;;9.80;2.72;;;;;;;-3.58;90.74;103218.22;5058917;28;20037;-72
2021/03/06 03:01:35;;;;;;;9.57;2.00;;;;;;;-3.51;90.44;103216.50;5034434;28;20068;-71
2021/03/06 03:04:10;;;;;;;8.77;2.63;;;;;;;-3.55;90.03;103215.63;5071488;28;20045;-72
2021/03/06 03:06:38;;;;;;;7.38;2.42;;;;;;;-3.54;89.64;103216.50;5068290;28;20067;-71
2021/03/06 03:09:18;;;;;;;8.48;2.38;;;;;;;-3.55;89.81;103212.22;5069082;28;20029;-71
2021/03/06 03:11:58;;;;;;;6.63;2.20;;;;;;;-3.49;89.45;103219.94;5068202;28;20036;-69
2021/03/06 03:14:43;;;;;;;10.05;2.45;;;;;;;-3.45;89.67;103213.09;5063002;28;20036;-70
2021/03/06 03:17:31;;;;;;;8.88;2.42;;;;;;;-3.46;90.02;103216.53;5078978;28;20033;-70
2021/03/06 03:20:28;;;;;;;11.20;2.47;;;;;;;-3.41;90.06;103219.94;5033838;28;20037;-70
2021/03/06 03:23:53;;;;;;;10.40;2.80;;;;;;;-3.29;90.33;103220.00;5052272;28;20072;-71
2021/03/06 03:26:29;;;;;;;13.00;2.30;;;;;;;-3.19;90.53;103210.59;5025988;28;20497;-71
2021/03/06 03:29:03;;;;;;;8.77;2.38;;;;;;;-3.07;90.79;103208.06;5055991;28;20057;-70
2021/03/06 03:31:39;;;;;;;11.25;2.83;;;;;;;-3.02;91.30;103198.63;5045261;28;20025;-70
2021/03/06 03:34:16;;;;;;;11.10;2.40;;;;;;;-2.97;91.26;103201.22;5034208;28;20090;-71
2021/03/06 03:36:56;;;;;;;14.85;2.40;;;;;;;-2.92;91.17;103207.19;5051465;28;20037;-71
2021/03/06 03:39:32;;;;;;;12.52;2.28;;;;;;;-2.88;91.09;103196.09;5050948;28;21706;-69
2021/03/06 03:42:03;;;;;;;12.50;2.80;;;;;;;-2.78;91.14;103184.94;5072400;28;20043;-70
2021/03/06 03:44:35;;;;;;;9.55;2.58;;;;;;;-2.54;90.80;103188.38;5049214;28;20535;-71
2021/03/06 03:47:13;;;;;;;11.23;2.53;;;;;;;-2.49;90.61;103181.47;5053404;28;20032;-70
2021/03/06 03:49:39;;;;;;;14.65;2.55;;;;;;;-2.37;90.44;103199.47;5032153;28;20068;-70
2021/03/06 03:52:10;;;;;;;10.57;2.55;;;;;;;-2.56;91.24;103197.78;5038010;28;20043;-71
2021/03/06 03:54:39;;;;;;;10.68;2.65;;;;;;;-2.59;91.68;103190.91;5035429;28;20132;-71
2021/03/06 03:57:07;;;;;;;7.47;2.63;;;;;;;-2.59;91.45;103190.06;5034882;28;20591;-71
2021/03/06 03:59:33;;;;;;;11.88;2.60;;;;;;;-2.55;91.03;103195.19;5064629;28;20033;-71
2021/03/06 04:01:59;;;;;;;6.65;1.85;;;;;;;-2.55;91.17;103192.63;5015519;28;20102;-71
2021/03/06 04:04:28;;;;;;;11.82;2.28;;;;;;;-2.50;91.74;103192.63;5049198;28;20040;-71
2021/03/06 04:07:03;;;;;;;7.90;2.30;;;;;;;-2.50;91.21;103200.34;5034567;28;20726;-71
2021/03/06 04:09:29;;;;;;;12.77;2.28;;;;;;;-2.44;91.32;103194.34;5045573;28;20049;-71
2021/03/06 04:11:55;;;;;;;12.88;2.13;;;;;;;-2.42;92.16;103202.91;5033758;28;20037;-71
2021/03/06 04:14:21;;;;;;;7.82;1.90;;;;;;;-2.30;92.82;103195.16;5033815;28;20039;-71
2021/03/06 04:16:47;;;;;;;9.35;2.05;;;;;;;-2.24;92.57;103204.56;5048129;28;20056;-71
2021/03/06 04:19:13;;;;;;;9.18;1.90;;;;;;;-2.14;92.93;103206.28;5042182;28;20756;-71
2021/03/06 04:21:39;;;;;;;7.05;1.60;;;;;;;-2.06;93.32;103201.94;5022420;28;20068;-70
2021/03/06 04:24:06;;;;;;;9.38;1.88;;;;;;;-1.92;93.35;103214.78;5068492;28;20045;-71
2021/03/06 04:26:32;;;;;;;8.65;1.65;;;;;;;-1.73;93.55;103201.81;5049105;28;20067;-72
2021/03/06 04:28:58;;;;;;;16.85;2.60;;;;;;;-1.76;93.51;103200.97;5028110;28;20115;-72
2021/03/06 04:31:24;;;;;;;8.02;1.83;;;;;;;-1.38;93.16;103206.81;5035246;28;20056;-70
2021/03/06 04:33:49;;;;;;;14.75;2.42;;;;;;;-1.18;92.86;103198.97;5048980;28;20044;-70
2021/03/06 04:36:15;;;;;;;10.43;1.80;;;;;;;-1.03;92.43;103200.59;5031449;28;20128;-71
2021/03/06 04:38:41;;;;;;;10.27;1.90;;;;;;;-1.13;93.52;103204.94;5032759;28;20044;-71
2021/03/06 04:41:07;;;;;;;7.85;1.80;;;;;;;-1.12;93.56;103186.03;5050364;28;20037;-71
2021/03/06 04:43:33;;;;;;;7.78;2.00;;;;;;;-0.87;93.30;103197.00;5051908;28;20383;-71
2021/03/06 04:46:00;;;;;;;8.98;2.10;;;;;;;-0.84;93.77;103201.28;5051881;28;20031;-71
2021/03/06 04:48:26;;;;;;;8.50;2.10;;;;;;;-0.96;94.27;103204.81;5067868;28;20036;-71
2021/03/06 04:50:51;;;;;;;13.95;2.33;;;;;;;-0.99;94.87;103205.69;5060851;28;20126;-72
2021/03/06 04:53:17;;;;;;;8.88;2.30;;;;;;;-0.97;95.19;103200.53;5073238;28;20153;-72
2021/03/06 04:55:43;;;;;;;8.65;2.20;;;;;;;-0.86;95.51;103197.88;5051542;28;20086;-72
2021/03/06 04:58:08;;;;;;;12.80;2.25;;;;;;;-0.82;95.65;103196.97;5035305;28;20044;-71
2021/03/06 05:00:34;;;;;;;8.20;2.58;;;;;;;-0.86;95.47;103205.59;5044985;28;20028;-73
2021/03/06 05:03:00;;;;;;;12.38;2.90;;;;;;;-0.83;95.60;103203.84;5067292;28;20032;-72
2021/03/06 05:05:26;;;;;;;13.85;2.42;;;;;;;-0.71;95.33;103204.63;5067438;28;20036;-71
2021/03/06 05:07:51;;;;;;;12.68;3.22;;;;;;;-0.83;95.93;103210.72;5058545;28;20115;-72
2021/03/06 05:10:20;;;;;;;17.13;2.95;;;;;;;-0.78;95.70;103208.97;5057524;28;20029;-72
2021/03/06 05:12:46;;;;;;;14.85;2.80;;;;;;;-0.75;96.42;103208.94;5064422;28;20035;-72
2021/03/06 05:15:12;;;;;;;11.20;2.45;;;;;;;-0.75;96.08;103205.50;5065219;28;20029;-72
2021/03/06 05:17:38;;;;;;;12.65;2.80;;;;;;;-0.73;95.83;103211.53;5064554;28;20131;-72
2021/03/06 05:20:04;;;;;;;13.52;2.85;;;;;;;-0.65;95.90;103199.41;5062444;28;20116;-72
2021/03/06 05:22:30;;;;;;;10.80;3.30;;;;;;;-0.66;95.49;103193.41;5048758;28;20036;-72
2021/03/06 05:24:55;;;;;;;9.35;2.80;;;;;;;-0.75;95.82;103203.78;5048793;28;20420;-72
2021/03/06 05:27:21;;;;;;;11.60;2.85;;;;;;;-0.71;95.64;103194.31;5048655;28;20047;-72
2021/03/06 05:29:46;;;;;;;15.00;2.97;;;;;;;-0.70;95.71;103207.16;5067881;28;20685;-72
2021/03/06 05:32:12;;;;;;;12.32;2.75;;;;;;;-0.70;95.82;103208.91;5067623;28;20034;-73
2021/03/06 05:34:37;;;;;;;13.57;3.25;;;;;;;-0.71;96.12;103212.34;5046733;28;20056;-72
2021/03/06 05:37:03;;;;;;;19.27;3.90;;;;;;;-0.71;96.29;103213.19;5048770;28;20115;-73
2021/03/06 05:39:29;;;;;;;16.55;2.95;;;;;;;-0.55;95.85;103210.47;5047135;28;20104;-73
2021/03/06 05:41:55;;;;;;;13.55;3.28;;;;;;;-0.49;95.57;103213.00;5062804;28;20036;-74
2021/03/06 05:44:22;;;;;;;14.05;3.20;;;;;;;-0.63;95.81;103221.72;5056227;28;20536;-74
2021/03/06 05:46:47;;;;;;;13.30;3.20;;;;;;;-0.60;96.10;103213.97;5068569;28;20064;-74
2021/03/06 05:49:13;;;;;;;14.20;3.00;;;;;;;-0.65;95.93;103218.31;5064681;28;20778;-74
2021/03/06 05:51:39;;;;;;;15.70;3.30;;;;;;;-0.70;96.35;103212.31;5050585;28;20064;-72
2021/03/06 05:54:10;;;;;;;8.20;3.58;;;;;;;-0.73;96.27;103206.38;5052492;28;20112;-74
2021/03/06 05:56:39;;;;;;;16.27;3.67;;;;;;;-0.69;96.63;103205.47;5046591;28;20064;-73
2021/03/06 05:59:13;;;;;;;10.13;3.33;;;;;;;-0.57;96.76;103207.91;5048392;28;20075;-74
2021/03/06 06:01:41;;;;;;;13.73;4.18;;;;;;;-0.56;96.70;103207.06;5047576;28;20469;-73
2021/03/06 06:04:08;;;;;;;19.90;4.40;;;;;;;-0.65;96.89;103207.13;5049551;28;20115;-74
2021/03/06 06:06:36;;;;;;;14.18;4.30;;;;;;;-0.65;97.12;103207.13;5062845;28;20041;-74
2021/03/06 06:09:04;;;;;;;17.17;4.55;;;;;;;-0.71;97.30;103209.78;5065844;28;20037;-74
2021/03/06 06:11:31;;;;;;;10.73;4.20;;;;;;;-0.70;97.38;103214.06;5062903;28;20033;-74
2021/03/06 06:14:01;;;;;;;19.98;5.07;;;;;;;-0.69;97.30;103208.88;5061260;28;20072;-74
2021/03/06 06:16:31;;;;;;;17.10;4.05;;;;;;;-0.69;97.13;103214.03;5063043;28;20029;-73
2021/03/06 06:18:57;;;;;;;17.40;4.32;;;;;;;-0.70;97.62;103212.31;5067390;28;20036;-74
2021/03/06 06:21:38;;;;;;;20.58;5.43;;;;;;;-0.67;97.48;103224.34;5051592;28;20033;-74
2021/03/06 06:24:07;;;;;;;13.77;5.15;;;;;;;-0.65;97.25;103217.44;5051123;28;20068;-74
2021/03/06 06:26:32;;;;;;;17.17;5.28;;;;;;;-0.64;97.62;103219.16;5065870;28;20028;-73
2021/03/06 06:28:58;;;;;;;16.30;5.43;;;;;;;-0.61;97.36;103219.13;5066637;28;20180;-74
2021/03/06 06:31:24;;;;;;;15.32;5.35;;;;;;;-0.55;97.33;103215.63;5071410;28;20482;-74
2021/03/06 06:33:54;;;;;;;15.10;5.15;;;;;;;-0.49;97.13;103220.72;5062610;28;20032;-74
2021/03/06 06:36:31;;;;;;;16.52;5.75;;;;;;;-0.43;97.59;103213.81;5033691;28;20126;-73
2021/03/06 06:38:57;;;;;;;19.52;5.57;;;;;;;-0.31;97.76;103210.25;5054022;28;20043;-73
2021/03/06 06:41:22;;;;;;;15.57;5.80;;;;;;;-0.34;97.87;103217.16;5062926;28;20643;-73
2021/03/06 06:43:48;;;;;;;16.42;5.88;;;;;;;-0.31;97.75;103224.88;5063590;28;20036;-74
2021/03/06 06:46:29;;;;;;;15.85;5.53;;;;;;;-0.37;98.08;103212.91;5071324;28;20474;-73
2021/03/06 06:49:00;;;;;;;14.40;6.55;;;;;;;-0.31;97.92;103227.44;5071469;28;20090;-73
2021/03/06 06:51:26;;;;;;;19.88;6.45;;;;;;;-0.22;97.92;103229.94;5061757;28;20043;-73
2021/03/06 06:54:08;;;;;;;14.77;5.68;;;;;;;-0.21;97.67;103231.63;5062997;28;20045;-74
2021/03/06 06:56:33;;;;;;;23.67;6.25;;;;;;;-0.20;98.12;103234.22;5053910;28;20040;-72
2021/03/06 06:59:09;;;;;;;16.80;6.22;;;;;;;-0.21;97.95;103242.84;5070005;28;20131;-73
2021/03/06 07:01:37;;;;;;;20.67;6.38;;;;;;;-0.24;98.09;103245.44;5070305;28;20040;-73
2021/03/06 07:04:05;;;;;;;24.77;7.32;;;;;;;-0.21;97.82;103240.25;5070093;28;20037;-73
2021/03/06 07:06:32;;;;;;;16.35;7.38;;;;;;;-0.10;98.10;103240.13;5066273;28;20028;-73
2021/03/06 07:09:13;;;;;;;19.05;6.80;;;;;;;-0.04;97.91;103245.25;5064872;28;20067;-73
2021/03/06 07:11:40;;;;;;;18.15;7.28;;;;;;;-0.02;97.83;103251.22;5063028;28;20043;-73
2021/03/06 07:14:06;;;;;;;19.60;6.70;;;;;;;0.09;97.70;103250.25;5064674;28;20033;-73
2021/03/06 07:17:00;;;;;;;18.33;7.53;;;;;;;0.21;97.87;103252.69;5055301;28;20154;-73
2021/03/06 07:19:31;;;;;;;21.95;6.80;;;;;;;0.35;97.61;103255.94;5032643;28;20048;-73
2021/03/06 07:21:58;;;;;;;25.15;7.45;;;;;;;0.30;97.30;103260.34;5048810;28;20090;-73
2021/03/06 07:24:27;;;;;;;20.02;7.20;;;;;;;0.39;97.60;103267.09;5050469;28;20386;-73
2021/03/06 07:26:53;;;;;;;15.77;6.47;;;;;;;0.48;97.27;103254.06;5065097;28;20040;-73
2021/03/06 07:29:20;;;;;;;22.35;6.55;;;;;;;0.80;97.11;103257.13;5060498;28;20029;-73
2021/03/06 07:31:50;;;;;;;21.17;6.85;;;;;;;0.86;96.77;103259.59;5069847;28;20401;-73
2021/03/06 07:34:17;;;;;;;20.23;6.18;;;;;;;0.94;97.47;103255.16;5070391;28;20112;-73
2021/03/06 07:36:45;;;;;;;21.60;6.30;;;;;;;1.07;97.76;103253.25;5071109;28;20394;-73
2021/03/06 07:39:13;;;;;;;30.45;7.30;;;;;;;1.33;96.85;103252.84;5070602;28;20037;-73
2021/03/06 07:41:41;;;;;;;28.38;6.05;;;;;;;1.44;96.60;103252.69;5050954;28;20033;-72
2021/03/06 07:44:07;;;;;;;21.40;5.53;;;;;;;1.59;96.01;103257.59;5063591;28;20032;-73
2021/03/06 07:46:39;;;;;;;23.25;5.18;;;;;;;1.63;95.11;103264.41;5050926;28;20041;-72
2021/03/06 07:49:13;;;;;;;24.17;5.13;;;;;;;1.72;94.21;103259.09;5068387;28;20037;-73
2021/03/06 07:51:46;;;;;;;21.13;5.13;;;;;;;1.96;93.59;103262.13;5070808;28;20033;-72
2021/03/06 07:54:14;;;;;;;17.35;4.75;;;;;;;1.99;93.03;103261.19;5067152;28;20039;-73
2021/03/06 07:56:41;;;;;;;28.15;5.25;;;;;;;1.95;93.13;103266.41;5052299;28;20041;-73
2021/03/06 07:59:07;;;;;;;16.15;5.30;;;;;;;1.94;93.61;103272.50;5061481;28;20028;-73
2021/03/06 08:01:34;;;;;;;23.55;5.50;;;;;;;1.87;94.03;103267.47;5059739;28;20143;-73
2021/03/06 08:04:04;;;;;;;20.85;5.30;;;;;;;1.93;93.29;103275.94;5066534;28;20051;-73
2021/03/06 08:06:31;;;;;;;16.25;5.32;;;;;;;1.88;93.65;103275.16;5045435;28;20032;-72
2021/03/06 08:09:08;;;;;;;26.38;5.55;;;;;;;1.88;93.93;103284.69;5068127;28;20032;-73
2021/03/06 08:11:33;;;;;;;22.80;5.45;;;;;;;1.84;94.13;103283.03;5063344;28;20032;-74
2021/03/06 08:14:02;;;;;;;19.02;5.38;;;;;;;1.89;94.04;103283.81;5033285;28;20076;-74
2021/03/06 08:16:27;;;;;;;21.27;5.60;;;;;;;1.91;94.19;103289.81;5055252;28;20126;-73
2021/03/06 08:18:55;;;;;;;19.55;5.38;;;;;;;2.19;94.23;103297.06;5049419;28;20521;-74
2021/03/06 08:21:41;;;;;;;24.08;5.95;;;;;;;2.22;94.48;103290.06;5031485;28;20158;-73
2021/03/06 08:24:12;;;;;;;24.88;5.80;;;;;;;2.27;94.30;103290.84;5059645;28;20497;-72
2021/03/06 08:26:42;;;;;;;20.88;5.40;;;;;;;2.40;94.08;103295.78;5051664;28;20047;-73
2021/03/06 08:29:23;;;;;;;25.98;6.38;;;;;;;2.31;93.83;103296.81;5041039;28;20063;-72
2021/03/06 08:31:56;;;;;;;25.02;5.88;;;;;;;2.42;93.90;103296.63;5056380;28;20056;-72
2021/03/06 08:34:33;;;;;;;29.90;6.40;;;;;;;2.56;92.94;103293.72;5050896;28;20051;-71
2021/03/06 08:37:19;;;;;;;23.50;7.97;;;;;;;2.57;92.27;103301.47;5067464;28;20043;-72
2021/03/06 08:39:50;;;;;;;29.95;8.82;;;;;;;2.68;92.37;103299.50;5067621;28;20124;-72
2021/03/06 08:42:17;;;;;;;28.30;9.57;;;;;;;2.70;92.23;103300.34;5056800;28;20025;-72
2021/03/06 08:44:43;;;;;;;34.30;9.68;;;;;;;2.64;92.43;103302.22;5059549;28;20114;-71
2021/03/06 08:47:08;;;;;;;29.67;9.88;;;;;;;2.60;93.29;103295.38;5060818;28;20504;-73
2021/03/06 08:49:35;;;;;;;31.75;10.77;;;;;;;2.52;94.39;103301.59;5048591;28;20801;-72
2021/03/06 08:52:01;;;;;;;26.55;9.13;;;;;;;2.55;93.73;103308.44;5041596;28;20036;-72
2021/03/06 08:54:36;;;;;;;33.70;10.55;;;;;;;2.53;94.27;103310.19;5037564;28;20025;-73
2021/03/06 08:57:01;;;;;;;29.77;10.75;;;;;;;2.66;93.36;103300.44;5044055;28;20044;-71
2021/03/06 08:59:37;;;;;;;30.95;11.15;;;;;;;2.75;93.06;103307.16;5054230;28;20033;-72
2021/03/06 09:02:14;;;;;;;30.35;12.15;;;;;;;2.78;94.41;103320.91;5049188;28;20127;-71
2021/03/06 09:04:39;;;;;;;24.92;10.20;;;;;;;2.84;94.46;103314.72;5059654;28;20036;-72
2021/03/06 09:07:26;;;;;;;22.00;9.48;;;;;;;2.91;94.47;103319.75;5043151;28;20094;-72
2021/03/06 09:09:52;;;;;;;21.27;8.00;;;;;;;2.97;93.81;103326.53;5055690;28;20033;-72
2021/03/06 09:12:19;;;;;;;16.45;7.47;;;;;;;3.08;95.27;103323.72;5060110;28;20029;-72
2021/03/06 09:14:44;;;;;;;19.08;5.53;;;;;;;3.25;93.52;103324.16;5053898;28;20048;-72
2021/03/06 09:17:10;;;;;;;11.90;4.93;;;;;;;3.33;93.12;103318.81;5049440;28;20105;-72
2021/03/06 09:19:36;;;;;;;15.88;4.65;;;;;;;3.59;91.65;103312.97;5067069;28;20024;-72
2021/03/06 09:22:07;;;;;;;13.80;4.97;;;;;;;3.68;92.30;103317.09;5066700;28;20184;-71
2021/03/06 09:24:50;;;;;;;25.73;10.13;;;;;;;3.78;90.79;103328.09;5062423;28;20112;-73
2021/03/06 09:27:16;;;;;;;28.58;13.93;;;;;;;3.77;90.97;103321.19;5058804;28;20473;-72
2021/03/06 09:29:43;;;;;;;31.73;16.00;;;;;;;3.88;90.88;103320.03;5046825;28;20067;-73
2021/03/06 09:32:09;;;;;;;33.25;17.50;;;;;;;3.85;90.72;103319.28;5047567;28;20115;-71
2021/03/06 09:34:35;;;;;;;31.00;18.48;;;;;;;3.77;90.20;103321.19;5050352;28;20127;-72
2021/03/06 09:37:18;;;;;;;28.17;17.63;;;;;;;3.89;90.64;103318.28;5047539;28;20037;-72
2021/03/06 09:39:43;;;;;;;27.95;16.48;;;;;;;4.08;90.50;103319.50;5046849;28;20032;-72
2021/03/06 09:42:09;;;;;;;29.63;17.52;;;;;;;4.32;90.04;103311.09;5029319;28;20405;-72
2021/03/06 09:44:36;;;;;;;34.63;19.23;;;;;;;4.52;88.76;103319.19;5068535;28;20036;-72
2021/03/06 09:47:02;;;;;;;28.08;16.77;;;;;;;4.50;87.94;103315.75;5058736;28;20037;-71
2021/03/06 09:49:35;;;;;;;32.33;17.58;;;;;;;4.48;88.06;103315.81;5052111;28;20060;-72
2021/03/06 09:52:00;;;;;;;;;;;;;;;4.48;89.70;103313.22;5073147;28;20094;-73
2021/03/06 09:54:27;;;;;;;14.35;8.18;;;;;;;4.54;89.17;103303.53;5084777;28;19920;-72
2021/03/06 09:57:00;;;;;;;12.27;4.95;;;;;;;4.55;87.88;103303.50;5052694;28;20145;-72
2021/03/06 09:59:28;;;;;;;6.93;4.80;;;;;;;4.34;88.94;103299.75;5044566;28;20440;-74
2021/03/06 10:01:54;;;;;;;11.35;4.45;;;;;;;4.13;90.73;103300.38;5071140;28;20040;-74
2021/03/06 10:04:23;;;;;;;12.80;5.18;;;;;;;4.01;92.16;103305.00;5058572;28;20126;-73
2021/03/06 10:06:57;;;;;;;11.10;4.85;;;;;;;3.97;92.35;103307.69;5059666;28;20020;-74
2021/03/06 10:09:24;;;;;;;10.10;4.80;;;;;;;3.88;93.32;103301.88;5060149;28;20045;-73
2021/03/06 10:11:52;;;;;;;10.65;4.60;;;;;;;3.93;93.32;103301.72;5067881;28;20041;-74
2021/03/06 10:14:21;;;;;;;9.35;3.95;;;;;;;3.88;93.38;103301.88;5054141;28;20040;-74
2021/03/06 10:17:15;;;;;;;11.35;3.13;;;;;;;3.81;93.50;103309.88;5072207;28;20040;-74
2021/03/06 10:19:49;;;;;;;8.38;2.88;;;;;;;3.92;92.45;103314.75;5048997;28;20040;-72
2021/03/06 10:22:16;;;;;;;12.90;3.42;;;;;;;4.07;92.10;103303.97;5052152;28;20479;-71
2021/03/06 10:25:03;;;;;;;11.75;3.47;;;;;;;4.10;93.45;103316.88;5050661;28;20040;-71
2021/03/06 10:27:43;;;;;;;10.18;3.80;;;;;;;4.14;92.80;103313.28;5051839;28;20541;-73
2021/03/06 10:30:33;;;;;;;9.98;4.18;;;;;;;4.21;89.98;103317.44;5067173;28;20099;-72
2021/03/06 10:33:05;;;;;;;8.45;3.55;;;;;;;4.29;90.27;103310.28;5066120;28;20263;-72
2021/03/06 10:35:35;;;;;;;10.10;3.63;;;;;;;4.52;90.92;103320.91;5070672;28;20040;-73
2021/03/06 10:38:03;;;;;;;9.38;3.22;;;;;;;4.59;88.56;103307.69;5053717;28;20072;-73
2021/03/06 10:40:51;;;;;;;9.10;2.95;;;;;;;4.66;87.05;103313.59;5071175;28;20025;-73
2021/03/06 10:43:35;;;;;;;10.20;3.60;;;;;;;4.99;87.22;103308.25;5070798;28;20119;-73
2021/03/06 10:46:20;;;;;;;7.50;3.28;;;;;;;5.12;85.69;103306.13;5064416;28;20032;-72
2021/03/06 10:49:01;;;;;;;8.35;2.80;;;;;;;4.97;83.06;103300.53;5045016;28;20033;-72
2021/03/06 10:51:59;;;;;;;6.03;2.28;;;;;;;5.06;85.25;103300.22;5063612;28;20044;-72
2021/03/06 10:54:25;;;;;;;8.23;2.13;;;;;;;4.94;82.91;103307.56;5028502;28;20394;-70
2021/03/06 10:57:06;;;;;;;5.38;2.40;;;;;;;4.72;82.63;103294.34;5057205;28;20037;-74
2021/03/06 10:59:36;;;;;;;10.15;2.90;;;;;;;4.62;82.67;103298.97;5050253;28;20029;-73
2021/03/06 11:02:03;;;;;;;9.32;2.72;;;;;;;4.48;84.85;103297.63;5070700;28;20116;-73
2021/03/06 11:04:34;;;;;;;9.48;2.92;;;;;;;4.51;84.87;103296.69;5053366;28;20535;-74
2021/03/06 11:07:06;;;;;;;9.50;3.38;;;;;;;4.58;85.07;103292.16;5059658;28;20073;-72
2021/03/06 11:09:36;;;;;;;7.25;2.70;;;;;;;4.54;86.83;103303.53;5059986;28;20048;-73
2021/03/06 11:12:27;;;;;;;7.20;2.40;;;;;;;4.65;86.54;103293.66;5066063;28;20044;-73
2021/03/06 11:15:15;;;;;;;5.85;2.47;;;;;;;4.79;84.80;103295.88;5067624;28;20043;-73
2021/03/06 11:17:42;;;;;;;7.13;2.50;;;;;;;4.88;83.21;103290.41;5050132;28;20033;-73
2021/03/06 11:20:10;;;;;;;5.93;2.42;;;;;;;5.09;81.73;103286.28;5049721;28;20041;-73
2021/03/06 11:22:36;;;;;;;4.63;2.20;;;;;;;5.17;81.02;103284.25;5049323;28;20108;-73
2021/03/06 11:25:07;;;;;;;6.15;2.53;;;;;;;5.29;82.23;103287.38;5069215;28;20041;-73
2021/03/06 11:28:03;;;;;;;6.50;2.30;;;;;;;5.52;82.24;103284.00;5069106;28;20056;-71
2021/03/06 11:30:47;;;;;;;8.32;2.70;;;;;;;5.48;81.53;103288.47;5065507;28;20039;-73
2021/03/06 11:33:16;;;;;;;5.75;2.80;;;;;;;5.25;80.43;103286.63;5070559;28;20048;-73
2021/03/06 11:35:42;;;;;;;6.40;2.67;;;;;;;5.24;79.88;103285.78;5069562;28;20106;-72